createdAt,value
2018-12-06T00:00:16.464Z,13.80
2018-12-06T00:01:16.473Z,14.00
2018-12-06T00:02:16.514Z,13.70
2018-12-06T00:03:16.508Z,13.60
2018-12-06T00:04:16.519Z,13.80
2018-12-06T00:05:16.540Z,13.60
2018-12-06T00:06:16.544Z,13.00
2018-12-06T00:07:16.558Z,13.10
2018-12-06T00:08:16.574Z,13.30
2018-12-06T00:09:16.584Z,13.50
2018-12-06T00:10:16.600Z,13.00
2018-12-06T00:11:16.618Z,13.20
2018-12-06T00:12:16.623Z,13.90
2018-12-06T00:13:16.643Z,12.80
2018-12-06T00:14:16.656Z,12.90
2018-12-06T00:15:16.669Z,13.50
2018-12-06T00:16:16.681Z,13.70
2018-12-06T00:17:16.693Z,13.50
2018-12-06T00:18:16.708Z,13.10
2018-12-06T00:19:16.754Z,12.50
2018-12-06T00:20:16.735Z,12.30
2018-12-06T00:21:16.750Z,12.60
2018-12-06T00:22:16.761Z,12.60
2018-12-06T00:23:16.778Z,12.20
2018-12-06T00:24:16.792Z,12.60
2018-12-06T00:25:16.805Z,12.80
2018-12-06T00:26:16.815Z,13.50
2018-12-06T00:27:16.832Z,12.80
2018-12-06T00:28:16.843Z,12.40
2018-12-06T00:29:16.858Z,12.80
2018-12-06T00:30:16.872Z,13.30
2018-12-06T00:31:16.889Z,12.80
2018-12-06T00:32:16.898Z,13.20
2018-12-06T00:33:16.918Z,13.40
2018-12-06T00:34:16.940Z,12.60
2018-12-06T00:35:16.951Z,12.10
2018-12-06T00:36:16.956Z,12.20
2018-12-06T00:37:16.969Z,12.50
2018-12-06T00:38:16.980Z,12.20
2018-12-06T00:39:17.007Z,12.60
2018-12-06T00:40:17.044Z,13.00
2018-12-06T00:41:17.021Z,12.70
2018-12-06T00:42:17.064Z,12.20
2018-12-06T00:43:17.060Z,12.40
2018-12-06T00:44:17.062Z,12.40
2018-12-06T00:45:17.074Z,12.40
2018-12-06T00:46:17.090Z,13.10
2018-12-06T00:47:17.105Z,13.00
2018-12-06T00:48:17.119Z,12.80
2018-12-06T00:49:17.128Z,13.40
2018-12-06T00:50:17.150Z,13.30
2018-12-06T00:51:17.162Z,13.40
2018-12-06T00:52:17.173Z,13.10
2018-12-06T00:53:17.190Z,12.70
2018-12-06T00:54:17.201Z,12.80
2018-12-06T00:55:17.215Z,13.00
2018-12-06T00:56:17.238Z,12.30
2018-12-06T00:57:17.241Z,13.00
2018-12-06T00:58:17.253Z,12.70
2018-12-06T00:59:17.271Z,12.00
2018-12-06T01:00:17.284Z,12.40
2018-12-06T01:01:17.303Z,12.60
2018-12-06T01:02:17.311Z,12.80
2018-12-06T01:03:17.323Z,12.30
2018-12-06T01:04:17.340Z,12.50
2018-12-06T01:05:17.353Z,12.50
2018-12-06T01:06:17.378Z,12.70
2018-12-06T01:07:17.379Z,12.00
2018-12-06T01:08:17.393Z,12.60
2018-12-06T01:09:17.409Z,12.30
2018-12-06T01:10:17.419Z,12.20
2018-12-06T01:11:17.444Z,13.20
2018-12-06T01:12:17.451Z,12.90
2018-12-06T01:13:17.461Z,12.50
2018-12-06T01:14:17.476Z,12.50
2018-12-06T01:15:17.490Z,12.60
2018-12-06T01:16:17.502Z,12.60
2018-12-06T01:17:17.515Z,12.10
2018-12-06T01:18:17.531Z,13.10
2018-12-06T01:19:17.546Z,13.00
2018-12-06T01:20:17.571Z,12.60
2018-12-06T01:21:17.573Z,12.00
2018-12-06T01:22:17.590Z,12.70
2018-12-06T01:23:17.602Z,12.40
2018-12-06T01:24:17.636Z,12.10
2018-12-06T01:25:17.628Z,11.90
2018-12-06T01:26:17.648Z,11.70
2018-12-06T01:27:17.657Z,12.20
2018-12-06T01:28:17.672Z,12.10
2018-12-06T01:29:17.685Z,12.10
2018-12-06T01:30:17.706Z,12.10
2018-12-06T01:31:17.714Z,12.00
2018-12-06T01:32:17.733Z,12.10
2018-12-06T01:33:17.748Z,12.80
2018-12-06T01:34:17.752Z,12.10
2018-12-06T01:35:17.774Z,11.70
2018-12-06T01:36:17.783Z,11.60
2018-12-06T01:37:17.797Z,11.80
2018-12-06T01:38:17.820Z,11.40
2018-12-06T01:39:17.826Z,11.60
2018-12-06T01:40:17.853Z,11.00
2018-12-06T01:41:17.849Z,11.30
2018-12-06T01:42:17.865Z,11.70
2018-12-06T01:43:17.879Z,12.00
2018-12-06T01:44:17.906Z,10.90
2018-12-06T01:45:17.910Z,11.30
2018-12-06T01:46:17.926Z,11.70
2018-12-06T01:47:17.935Z,10.70
2018-12-06T01:48:17.954Z,11.80
2018-12-06T01:49:17.980Z,11.40
2018-12-06T01:50:17.988Z,11.10
2018-12-06T01:51:17.990Z,11.30
2018-12-06T01:52:18.021Z,11.90
2018-12-06T01:53:18.031Z,11.50
2018-12-06T01:54:18.036Z,11.40
2018-12-06T01:55:18.053Z,10.80
2018-12-06T01:56:18.062Z,11.20
2018-12-06T01:57:18.089Z,11.00
2018-12-06T01:58:18.089Z,11.10
2018-12-06T01:59:18.116Z,10.40
2018-12-06T02:00:18.125Z,10.70
2018-12-06T02:01:18.135Z,10.80
2018-12-06T02:02:18.166Z,11.10
2018-12-06T02:03:18.186Z,10.50
2018-12-06T02:04:18.236Z,10.70
2018-12-06T02:05:18.198Z,10.50
2018-12-06T02:06:18.208Z,11.10
2018-12-06T02:07:18.221Z,11.30
2018-12-06T02:08:18.231Z,11.10
2018-12-06T02:09:18.246Z,11.20
2018-12-06T02:10:18.295Z,11.50
2018-12-06T02:11:18.276Z,12.20
2018-12-06T02:12:18.294Z,12.10
2018-12-06T02:13:18.302Z,11.10
2018-12-06T02:14:18.322Z,11.60
2018-12-06T02:15:18.333Z,12.20
2018-12-06T02:16:18.347Z,11.90
2018-12-06T02:17:18.362Z,11.80
2018-12-06T02:18:18.383Z,11.40
2018-12-06T02:19:18.397Z,12.30
2018-12-06T02:20:18.409Z,11.90
2018-12-06T02:21:18.420Z,11.80
2018-12-06T02:22:18.435Z,11.60
2018-12-06T02:23:18.450Z,12.20
2018-12-06T02:24:18.461Z,12.10
2018-12-06T02:25:18.483Z,11.30
2018-12-06T02:26:18.506Z,12.20
2018-12-06T02:27:18.503Z,12.00
2018-12-06T02:28:18.516Z,11.60
2018-12-06T02:29:18.535Z,12.40
2018-12-06T02:30:18.549Z,12.20
2018-12-06T02:31:18.561Z,11.30
2018-12-06T02:32:18.576Z,12.00
2018-12-06T02:33:18.593Z,11.80
2018-12-06T02:34:18.617Z,12.10
2018-12-06T02:35:18.620Z,12.20
2018-12-06T02:36:18.674Z,12.40
2018-12-06T02:37:18.654Z,12.60
2018-12-06T02:38:18.662Z,12.40
2018-12-06T02:39:18.713Z,11.90
2018-12-06T02:40:18.691Z,11.90
2018-12-06T02:41:18.703Z,12.50
2018-12-06T02:42:18.728Z,11.70
2018-12-06T02:43:18.736Z,12.90
2018-12-06T02:44:18.749Z,12.60
2018-12-06T02:45:18.756Z,11.60
2018-12-06T02:46:18.776Z,11.70
2018-12-06T02:47:18.787Z,12.50
2018-12-06T02:48:18.826Z,12.10
2018-12-06T02:49:18.819Z,12.50
2018-12-06T02:50:18.873Z,12.70
2018-12-06T02:51:18.849Z,11.90
2018-12-06T02:52:18.862Z,12.10
2018-12-06T02:53:18.879Z,11.50
2018-12-06T02:54:18.891Z,11.70
2018-12-06T02:55:18.943Z,12.30
2018-12-06T02:56:18.914Z,11.90
2018-12-06T02:57:18.933Z,12.60
2018-12-06T02:58:18.958Z,11.90
2018-12-06T02:59:18.964Z,11.70
2018-12-06T03:00:18.974Z,11.40
2018-12-06T03:01:18.985Z,11.70
2018-12-06T03:02:19.007Z,11.90
2018-12-06T03:03:19.049Z,12.20
2018-12-06T03:04:19.045Z,12.10
2018-12-06T03:05:19.071Z,11.90
2018-12-06T03:06:19.065Z,11.80
2018-12-06T03:07:19.079Z,11.20
2018-12-06T03:08:19.202Z,11.60
2018-12-06T03:38:05.829Z,9.00
2018-12-06T03:39:05.809Z,11.90
2018-12-06T03:40:57.751Z,13.00
2018-12-06T03:41:57.752Z,14.50
2018-12-06T03:43:49.654Z,13.70
2018-12-06T03:44:49.645Z,13.80
2018-12-06T03:46:41.621Z,13.50
2018-12-06T03:47:41.567Z,13.60
2018-12-06T03:49:33.480Z,14.20
2018-12-06T03:50:33.485Z,14.80
2018-12-06T03:52:25.405Z,14.80
2018-12-06T03:53:25.395Z,14.30
2018-12-06T03:55:17.303Z,15.30
2018-12-06T03:56:17.311Z,15.80
2018-12-06T03:58:09.245Z,15.00
2018-12-06T03:59:09.222Z,14.80
2018-12-06T04:01:01.149Z,14.90
2018-12-06T04:02:01.182Z,14.70
2018-12-06T04:03:53.084Z,13.70
2018-12-06T04:04:53.054Z,14.00
2018-12-06T04:06:44.979Z,14.00
2018-12-06T04:07:44.967Z,13.60
2018-12-06T04:09:36.873Z,13.50
2018-12-06T04:10:36.888Z,13.20
2018-12-06T04:12:28.801Z,12.50
2018-12-06T04:13:28.790Z,13.40
2018-12-06T04:15:20.721Z,12.10
2018-12-06T04:16:20.712Z,11.70
2018-12-06T04:18:12.637Z,11.20
2018-12-06T04:19:12.638Z,10.70
2018-12-06T04:21:04.555Z,10.50
2018-12-06T04:22:04.546Z,10.80
2018-12-06T04:23:56.476Z,9.80
2018-12-06T04:24:56.468Z,8.90
2018-12-06T04:26:48.393Z,9.20
2018-12-06T04:27:48.386Z,8.70
2018-12-06T04:29:40.326Z,8.50
2018-12-06T04:30:40.301Z,8.70
2018-12-06T04:32:32.233Z,8.00
2018-12-06T04:33:32.221Z,8.50
2018-12-06T04:35:24.129Z,8.40
2018-12-06T04:36:24.139Z,7.90
2018-12-06T04:38:16.091Z,7.80
2018-12-06T04:39:16.080Z,7.90
2018-12-06T04:41:07.986Z,8.10
2018-12-06T04:42:07.993Z,7.80
2018-12-06T04:43:59.947Z,8.00
2018-12-06T04:44:59.915Z,7.50
2018-12-06T04:46:51.842Z,7.70
2018-12-06T04:47:51.835Z,7.40
2018-12-06T04:49:43.756Z,7.40
2018-12-06T04:50:43.754Z,7.50
2018-12-06T04:52:35.678Z,7.50
2018-12-06T04:53:35.666Z,7.60
2018-12-06T04:55:27.588Z,7.80
2018-12-06T04:56:27.591Z,7.20
2018-12-06T04:58:19.519Z,7.70
2018-12-06T04:59:19.509Z,7.20
2018-12-06T05:01:11.424Z,7.20
2018-12-06T05:02:11.432Z,7.50
2018-12-06T05:04:03.371Z,7.20
2018-12-06T05:05:03.359Z,7.70
2018-12-06T05:06:55.295Z,8.10
2018-12-06T05:07:55.277Z,7.50
2018-12-06T05:09:47.188Z,8.10
2018-12-06T05:10:47.208Z,8.10
2018-12-06T05:12:39.135Z,7.40
2018-12-06T05:13:39.126Z,7.60
2018-12-06T05:15:31.039Z,8.00
2018-12-06T05:16:31.042Z,8.30
2018-12-06T05:18:22.977Z,7.60
2018-12-06T05:19:22.970Z,8.20
2018-12-06T05:21:15.110Z,7.60
2018-12-06T05:22:15.110Z,8.40
2018-12-06T05:24:07.024Z,8.60
2018-12-06T05:25:07.018Z,8.10
2018-12-06T05:26:58.932Z,8.00
2018-12-06T05:27:58.936Z,8.40
2018-12-06T05:29:50.861Z,7.60
2018-12-06T05:30:50.851Z,8.10
2018-12-06T05:32:42.793Z,8.50
2018-12-06T05:33:42.774Z,8.30
2018-12-06T05:35:34.690Z,8.30
2018-12-06T05:36:34.695Z,9.00
2018-12-06T05:38:27.124Z,8.90
2018-12-06T05:39:27.131Z,8.80
2018-12-06T05:41:20.602Z,9.20
2018-12-06T05:42:20.533Z,8.90
2018-12-06T05:44:12.463Z,9.10
2018-12-06T05:45:12.454Z,9.60
2018-12-06T05:47:04.364Z,9.20
2018-12-06T05:48:04.373Z,9.70
2018-12-06T05:49:56.326Z,9.60
2018-12-06T05:50:56.311Z,9.40
2018-12-06T05:52:48.226Z,10.10
2018-12-06T05:53:48.278Z,9.00
2018-12-06T05:55:40.164Z,9.60
2018-12-06T05:56:40.168Z,9.80
2018-12-06T05:58:32.090Z,10.00
2018-12-06T05:59:32.076Z,10.50
2018-12-06T06:01:24.000Z,10.10
2018-12-06T06:02:24.002Z,10.00
2018-12-06T06:04:15.977Z,10.40
2018-12-06T06:05:15.961Z,9.90
2018-12-06T06:07:07.896Z,10.20
2018-12-06T06:08:07.890Z,10.00
2018-12-06T06:10:00.330Z,9.50
2018-12-06T06:11:00.316Z,10.10
2018-12-06T06:12:52.239Z,9.70
2018-12-06T06:13:52.249Z,9.10
2018-12-06T06:15:44.174Z,10.00
2018-12-06T06:16:44.164Z,10.00
2018-12-06T06:18:36.081Z,10.00
2018-12-06T06:19:36.085Z,10.20
2018-12-06T06:21:28.016Z,9.80
2018-12-06T06:22:28.033Z,10.00
2018-12-06T06:24:20.027Z,9.30
2018-12-06T06:25:19.927Z,9.80
2018-12-06T06:27:11.875Z,9.80
2018-12-06T06:28:11.893Z,10.50
2018-12-06T06:30:03.821Z,10.80
2018-12-06T06:31:03.812Z,9.90
2018-12-06T06:32:55.719Z,10.60
2018-12-06T06:33:55.726Z,11.00
2018-12-06T06:35:47.702Z,11.20
2018-12-06T06:36:47.692Z,10.60
2018-12-06T06:38:39.605Z,10.50
2018-12-06T06:39:39.621Z,11.60
2018-12-06T06:41:31.568Z,11.00
2018-12-06T06:42:31.555Z,11.50
2018-12-06T06:44:23.472Z,11.50
2018-12-06T06:45:23.496Z,11.50
2018-12-06T06:47:15.410Z,11.40
2018-12-06T06:48:15.403Z,11.90
2018-12-06T06:50:07.351Z,12.40
2018-12-06T06:51:07.335Z,12.50
2018-12-06T06:52:59.246Z,12.60
2018-12-06T06:53:59.260Z,12.60
2018-12-06T06:55:51.204Z,12.80
2018-12-06T06:56:51.171Z,13.60
2018-12-06T06:58:43.087Z,13.50
2018-12-06T06:59:43.087Z,13.40
2018-12-06T07:01:35.025Z,14.20
2018-12-06T07:02:35.011Z,13.90
2018-12-06T07:04:26.921Z,13.60
2018-12-06T07:05:26.934Z,14.50
2018-12-06T07:07:18.868Z,14.60
2018-12-06T07:08:18.894Z,14.40
2018-12-06T07:10:10.772Z,14.30
2018-12-06T07:11:10.782Z,14.00
2018-12-06T07:13:02.734Z,14.80
2018-12-06T07:14:02.712Z,14.10
2018-12-06T07:15:54.608Z,14.30
2018-12-06T07:16:54.623Z,13.60
2018-12-06T07:18:46.553Z,15.70
2018-12-06T07:19:46.556Z,15.40
2018-12-06T07:21:38.494Z,15.80
2018-12-06T07:22:38.503Z,14.90
2018-12-06T07:24:30.399Z,14.90
2018-12-06T07:25:30.409Z,16.20
2018-12-06T07:27:22.366Z,16.70
2018-12-06T07:28:22.326Z,16.90
2018-12-06T07:30:14.242Z,18.00
2018-12-06T07:31:14.253Z,17.90
2018-12-06T07:33:06.211Z,18.00
2018-12-06T07:34:06.184Z,17.60
2018-12-06T07:35:58.206Z,18.40
2018-12-06T07:36:58.245Z,18.00
2018-12-06T07:38:50.182Z,18.30
2018-12-06T07:39:50.179Z,19.50
2018-12-06T07:41:42.042Z,18.00
2018-12-06T07:42:42.048Z,19.20
2018-12-06T07:44:33.997Z,19.00
2018-12-06T07:45:33.990Z,17.70
2018-12-06T07:47:25.890Z,19.20
2018-12-06T07:48:25.916Z,19.20
2018-12-06T07:50:17.829Z,18.60
2018-12-06T07:51:17.816Z,18.40
2018-12-06T07:53:09.745Z,18.30
2018-12-06T07:54:09.737Z,18.50
2018-12-06T07:56:01.649Z,17.90
2018-12-06T07:57:01.681Z,18.00
2018-12-06T07:58:53.679Z,17.40
2018-12-06T07:59:53.637Z,17.10
2018-12-06T08:00:53.655Z,17.80
2018-12-06T08:01:53.663Z,17.40
2018-12-06T08:02:53.682Z,17.30
2018-12-06T08:03:53.721Z,16.70
2018-12-06T08:04:53.714Z,18.30
2018-12-06T08:05:53.756Z,18.00
2018-12-06T08:06:53.748Z,18.10
2018-12-06T08:07:53.765Z,19.80
2018-12-06T08:08:53.840Z,19.00
2018-12-06T08:09:53.803Z,19.70
2018-12-06T08:10:53.816Z,19.70
2018-12-06T08:11:53.826Z,20.00
2018-12-06T08:12:53.844Z,20.20
2018-12-06T08:13:53.869Z,20.00
2018-12-06T08:14:53.871Z,20.00
2018-12-06T08:15:53.882Z,19.30
2018-12-06T08:16:53.904Z,20.10
2018-12-06T08:17:54.014Z,19.90
2018-12-06T08:18:53.939Z,20.50
2018-12-06T08:19:53.956Z,19.60
2018-12-06T08:20:53.971Z,20.00
2018-12-06T08:21:53.995Z,20.30
2018-12-06T08:22:54.004Z,20.00
2018-12-06T08:23:54.017Z,20.10
2018-12-06T08:24:54.073Z,19.60
2018-12-06T08:25:54.047Z,19.80
2018-12-06T08:26:54.059Z,20.90
2018-12-06T08:27:54.077Z,20.60
2018-12-06T08:28:54.096Z,21.10
2018-12-06T08:29:54.118Z,22.50
2018-12-06T08:30:54.135Z,21.60
2018-12-06T08:31:54.141Z,21.90
2018-12-06T08:32:54.199Z,22.30
2018-12-06T08:33:54.197Z,22.10
2018-12-06T08:34:54.211Z,21.30
2018-12-06T08:35:54.200Z,22.60
2018-12-06T08:36:54.220Z,21.50
2018-12-06T08:37:54.276Z,23.10
2018-12-06T08:38:54.260Z,23.00
2018-12-06T08:39:54.330Z,23.40
2018-12-06T08:40:54.280Z,23.70
2018-12-06T08:41:54.335Z,23.10
2018-12-06T08:42:54.317Z,24.40
2018-12-06T08:43:54.333Z,24.10
2018-12-06T08:44:54.360Z,24.00
2018-12-06T08:45:54.359Z,22.70
2018-12-06T08:46:54.373Z,23.30
2018-12-06T08:47:54.415Z,23.40
2018-12-06T08:48:54.433Z,23.20
2018-12-06T08:49:54.421Z,23.20
2018-12-06T08:50:54.477Z,22.30
2018-12-06T08:51:54.465Z,22.50
2018-12-06T08:52:54.474Z,22.20
2018-12-06T08:53:54.499Z,21.80
2018-12-06T08:54:54.512Z,22.10
2018-12-06T08:55:54.530Z,22.00
2018-12-06T08:56:54.540Z,21.60
2018-12-06T08:57:54.553Z,21.30
2018-12-06T08:58:54.577Z,21.80
2018-12-06T08:59:54.584Z,21.00
2018-12-06T09:00:54.616Z,21.20
2018-12-06T09:01:54.626Z,20.80
2018-12-06T09:02:55.537Z,20.10
2018-12-06T09:03:54.662Z,20.80
2018-12-06T09:04:54.888Z,20.10
2018-12-06T09:05:54.685Z,20.40
2018-12-06T09:06:54.699Z,20.50
2018-12-06T09:07:56.149Z,20.00
2018-12-06T09:08:54.746Z,19.70
2018-12-06T09:09:54.752Z,19.50
2018-12-06T09:10:54.771Z,20.00
2018-12-06T09:11:54.790Z,19.70
2018-12-06T09:12:54.795Z,19.60
2018-12-06T09:13:54.909Z,19.60
2018-12-06T09:14:54.834Z,19.00
2018-12-06T09:15:54.854Z,18.90
2018-12-06T09:16:54.890Z,18.90
2018-12-06T09:17:54.909Z,19.10
2018-12-06T09:18:54.906Z,19.40
2018-12-06T09:19:54.917Z,18.10
2018-12-06T09:20:54.963Z,18.90
2018-12-06T09:21:54.947Z,18.40
2018-12-06T09:22:55.013Z,18.50
2018-12-06T09:23:54.997Z,19.50
2018-12-06T09:24:55.004Z,18.20
2018-12-06T09:25:55.019Z,18.20
2018-12-06T09:26:58.631Z,17.20
2018-12-06T09:27:55.051Z,18.20
2018-12-06T09:28:55.065Z,17.60
2018-12-06T09:29:55.082Z,16.40
2018-12-06T09:31:00.996Z,17.30
2018-12-06T09:31:55.116Z,16.60
2018-12-06T09:32:55.143Z,17.00
2018-12-06T09:33:55.148Z,16.30
2018-12-06T09:34:55.179Z,17.20
2018-12-06T09:35:55.184Z,15.60
2018-12-06T09:36:55.199Z,16.50
2018-12-06T09:37:55.214Z,16.10
2018-12-06T09:38:55.231Z,14.70
2018-12-06T09:39:55.247Z,15.70
2018-12-06T09:40:55.280Z,15.20
2018-12-06T09:41:55.281Z,15.40
2018-12-06T09:42:55.295Z,14.80
2018-12-06T09:43:55.323Z,15.50
2018-12-06T09:44:55.321Z,15.10
2018-12-06T09:45:55.341Z,15.20
2018-12-06T09:46:55.361Z,14.80
2018-12-06T09:47:55.380Z,14.10
2018-12-06T09:48:55.477Z,14.80
2018-12-06T09:49:55.418Z,14.10
2018-12-06T09:50:55.478Z,14.00
2018-12-06T09:51:55.444Z,14.00
2018-12-06T09:52:55.462Z,13.80
2018-12-06T09:53:55.496Z,13.60
2018-12-06T09:54:55.493Z,13.60
2018-12-06T09:55:55.523Z,13.80
2018-12-06T09:56:55.571Z,13.00
2018-12-06T09:57:55.550Z,13.50
2018-12-06T09:58:55.564Z,13.30
2018-12-06T09:59:55.578Z,13.30
2018-12-06T10:00:55.599Z,13.10
2018-12-06T10:01:55.609Z,13.40
2018-12-06T10:02:55.626Z,12.70
2018-12-06T10:03:55.654Z,12.70
2018-12-06T10:04:55.660Z,13.80
2018-12-06T10:05:55.679Z,12.80
2018-12-06T10:06:55.703Z,12.10
2018-12-06T10:07:55.717Z,12.50
2018-12-06T10:08:55.737Z,12.50
2018-12-06T10:09:55.740Z,12.40
2018-12-06T10:10:55.760Z,11.90
2018-12-06T10:11:55.778Z,11.50
2018-12-06T10:12:55.795Z,12.30
2018-12-06T10:13:55.816Z,11.80
2018-12-06T10:14:55.832Z,12.50
2018-12-06T10:15:55.857Z,12.20
2018-12-06T10:16:55.867Z,11.90
2018-12-06T10:17:55.876Z,12.20
2018-12-06T10:18:55.895Z,12.00
2018-12-06T10:19:55.919Z,12.60
2018-12-06T10:20:55.936Z,12.70
2018-12-06T10:21:55.959Z,12.50
2018-12-06T10:22:55.973Z,12.40
2018-12-06T10:23:55.987Z,11.90
2018-12-06T10:24:56.026Z,12.00
2018-12-06T10:25:56.018Z,12.10
2018-12-06T10:26:56.038Z,11.30
2018-12-06T10:27:56.050Z,11.50
2018-12-06T10:28:56.069Z,11.60
2018-12-06T10:29:56.083Z,11.60
2018-12-06T10:30:56.130Z,12.00
2018-12-06T10:31:56.144Z,11.30
2018-12-06T10:32:56.176Z,11.80
2018-12-06T10:33:56.148Z,11.30
2018-12-06T10:34:56.165Z,11.30
2018-12-06T10:35:56.186Z,10.70
2018-12-06T10:36:56.203Z,11.10
2018-12-06T10:37:56.224Z,10.40
2018-12-06T10:38:56.229Z,10.80
2018-12-06T10:39:56.242Z,11.50
2018-12-06T10:40:56.269Z,12.00
2018-12-06T10:41:56.278Z,11.30
2018-12-06T10:42:56.296Z,11.00
2018-12-06T10:43:56.322Z,11.10
2018-12-06T10:44:56.400Z,11.00
2018-12-06T10:45:56.343Z,11.80
2018-12-06T10:46:56.362Z,11.40
2018-12-06T10:47:56.391Z,11.40
2018-12-06T10:48:56.399Z,11.20
2018-12-06T10:49:56.417Z,11.30
2018-12-06T10:50:56.433Z,11.20
2018-12-06T10:51:56.453Z,11.30
2018-12-06T10:52:56.465Z,11.00
2018-12-06T10:53:56.496Z,11.50
2018-12-06T10:54:56.504Z,12.00
2018-12-06T10:55:56.511Z,11.30
2018-12-06T10:56:57.072Z,11.00
2018-12-06T10:57:56.558Z,11.20
2018-12-06T10:58:56.592Z,11.60
2018-12-06T10:59:56.592Z,11.50
2018-12-06T11:00:57.574Z,10.70
2018-12-06T11:01:56.616Z,11.10
2018-12-06T11:02:56.635Z,11.70
2018-12-06T11:03:56.650Z,11.90
2018-12-06T11:04:56.661Z,11.60
2018-12-06T11:05:56.682Z,11.90
2018-12-06T11:06:56.698Z,10.80
2018-12-06T11:07:56.713Z,11.40
2018-12-06T11:08:56.735Z,10.90
2018-12-06T11:09:56.754Z,11.30
2018-12-06T11:10:56.767Z,10.90
2018-12-06T11:11:56.777Z,11.20
2018-12-06T11:12:56.815Z,11.20
2018-12-06T11:13:56.811Z,11.20
2018-12-06T11:14:56.822Z,11.70
2018-12-06T11:15:56.845Z,11.30
2018-12-06T11:16:56.864Z,11.40
2018-12-06T11:17:56.878Z,11.80
2018-12-06T11:18:56.895Z,11.40
2018-12-06T11:19:56.913Z,11.10
2018-12-06T11:20:56.974Z,11.60
2018-12-06T11:21:56.940Z,10.40
2018-12-06T11:22:56.968Z,11.30
2018-12-06T11:23:56.986Z,11.10
2018-12-06T11:24:56.993Z,11.40
2018-12-06T11:25:57.016Z,11.00
2018-12-06T11:26:57.034Z,11.00
2018-12-06T11:27:57.044Z,11.50
2018-12-06T11:28:57.168Z,10.90
2018-12-06T11:29:57.082Z,10.10
2018-12-06T11:30:57.116Z,9.90
2018-12-06T11:31:57.122Z,9.30
2018-12-06T11:32:57.138Z,9.50
2018-12-06T11:33:57.148Z,9.90
2018-12-06T11:34:57.158Z,9.80
2018-12-06T11:35:57.177Z,9.00
2018-12-06T11:36:57.190Z,8.60
2018-12-06T11:37:57.203Z,8.90
2018-12-06T11:38:57.225Z,8.30
2018-12-06T11:39:57.239Z,8.30
2018-12-06T11:40:57.253Z,8.40
2018-12-06T11:41:57.289Z,8.50
2018-12-06T11:42:57.289Z,8.50
2018-12-06T11:43:57.310Z,8.60
2018-12-06T11:44:57.343Z,9.10
2018-12-06T11:45:57.354Z,8.70
2018-12-06T11:46:57.377Z,8.60
2018-12-06T11:47:57.372Z,8.70
2018-12-06T11:48:57.390Z,8.70
2018-12-06T11:49:57.407Z,8.90
2018-12-06T11:50:57.420Z,8.20
2018-12-06T11:51:57.444Z,9.50
2018-12-06T11:52:57.459Z,9.20
2018-12-06T11:53:57.483Z,8.80
2018-12-06T11:54:57.505Z,8.90
2018-12-06T11:55:57.508Z,8.70
2018-12-06T11:56:57.527Z,9.10
2018-12-06T11:57:57.555Z,9.10
2018-12-06T11:58:57.561Z,9.00
2018-12-06T11:59:57.578Z,8.70
2018-12-06T12:00:57.595Z,8.80
2018-12-06T12:01:57.616Z,9.00
2018-12-06T12:02:57.623Z,9.00
2018-12-06T12:03:57.648Z,8.70
2018-12-06T12:04:57.673Z,8.60
2018-12-06T12:05:58.693Z,8.80
2018-12-06T12:06:57.686Z,9.50
2018-12-06T12:07:57.701Z,9.10
2018-12-06T12:08:57.733Z,9.00
2018-12-06T12:09:57.776Z,8.50
2018-12-06T12:10:57.760Z,8.50
2018-12-06T12:11:57.776Z,8.80
2018-12-06T12:12:57.819Z,8.40
2018-12-06T12:13:57.820Z,8.60
2018-12-06T12:14:57.834Z,8.20
2018-12-06T12:15:57.856Z,8.30
2018-12-06T12:16:57.861Z,8.80
2018-12-06T12:17:57.877Z,8.10
2018-12-06T12:18:57.905Z,8.20
2018-12-06T12:19:57.912Z,8.50
2018-12-06T12:20:57.929Z,7.90
2018-12-06T12:21:57.951Z,8.40
2018-12-06T12:22:57.968Z,8.10
2018-12-06T12:23:57.986Z,8.20
2018-12-06T12:24:58.000Z,8.40
2018-12-06T12:25:58.011Z,7.90
2018-12-06T12:26:58.074Z,7.90
2018-12-06T12:27:58.056Z,8.50
2018-12-06T12:28:58.064Z,8.80
2018-12-06T12:29:58.074Z,8.20
2018-12-06T12:30:58.110Z,7.90
2018-12-06T12:31:58.126Z,7.90
2018-12-06T12:32:58.135Z,7.50
2018-12-06T12:33:58.160Z,7.70
2018-12-06T12:34:58.164Z,7.20
2018-12-06T12:35:58.180Z,7.80
2018-12-06T12:36:58.196Z,8.30
2018-12-06T12:37:58.214Z,7.70
2018-12-06T12:38:58.232Z,7.80
2018-12-06T12:39:58.245Z,7.70
2018-12-06T12:40:58.268Z,8.10
2018-12-06T12:41:58.286Z,8.10
2018-12-06T12:42:58.301Z,8.00
2018-12-06T12:43:58.318Z,7.70
2018-12-06T12:44:58.331Z,7.60
2018-12-06T12:45:58.350Z,7.50
2018-12-06T12:46:58.366Z,7.60
2018-12-06T12:47:58.382Z,8.00
2018-12-06T12:48:58.401Z,7.60
2018-12-06T12:49:58.422Z,7.80
2018-12-06T12:50:58.451Z,7.50
2018-12-06T12:51:58.508Z,7.90
2018-12-06T12:52:58.476Z,7.60
2018-12-06T12:53:58.495Z,7.40
2018-12-06T12:54:58.522Z,7.30
2018-12-06T12:55:58.524Z,7.20
2018-12-06T12:56:58.540Z,7.80
2018-12-06T12:57:58.558Z,6.90
2018-12-06T12:58:58.574Z,7.50
2018-12-06T12:59:58.587Z,7.30
2018-12-06T13:00:58.611Z,7.40
2018-12-06T13:01:58.631Z,7.10
2018-12-06T13:02:58.640Z,7.70
2018-12-06T13:03:58.655Z,7.10
2018-12-06T13:04:58.676Z,7.40
2018-12-06T13:05:58.694Z,7.30
2018-12-06T13:06:58.711Z,7.10
2018-12-06T13:07:58.734Z,6.60
2018-12-06T13:08:58.748Z,6.70
2018-12-06T13:09:58.758Z,7.30
2018-12-06T13:10:58.776Z,6.80
2018-12-06T13:11:58.789Z,6.50
2018-12-06T13:12:58.815Z,6.70
2018-12-06T13:13:58.824Z,7.10
2018-12-06T13:14:58.842Z,6.70
2018-12-06T13:15:58.868Z,7.00
2018-12-06T13:16:58.874Z,7.00
2018-12-06T13:17:58.907Z,7.20
2018-12-06T13:18:58.909Z,6.70
2018-12-06T13:19:58.927Z,6.40
2018-12-06T13:20:58.949Z,7.10
2018-12-06T13:21:58.963Z,7.20
2018-12-06T13:22:58.984Z,7.30
2018-12-06T13:23:59.004Z,6.90
2018-12-06T13:24:59.045Z,7.10
2018-12-06T13:25:59.038Z,6.70
2018-12-06T13:26:59.058Z,6.90
2018-12-06T13:27:59.080Z,7.20
2018-12-06T13:28:59.086Z,7.10
2018-12-06T13:29:59.097Z,7.10
2018-12-06T13:30:59.116Z,6.70
2018-12-06T13:31:59.130Z,6.80
2018-12-06T13:32:59.157Z,7.00
2018-12-06T13:33:59.172Z,6.90
2018-12-06T13:34:59.183Z,6.90
2018-12-06T13:35:59.206Z,6.70
2018-12-06T13:36:59.227Z,7.00
2018-12-06T13:37:59.233Z,7.20
2018-12-06T13:39:00.999Z,7.10
2018-12-06T13:39:59.283Z,6.90
2018-12-06T13:40:59.292Z,7.30
2018-12-06T13:41:59.305Z,7.40
2018-12-06T13:42:59.323Z,6.60
2018-12-06T13:43:59.340Z,7.00
2018-12-06T13:44:59.373Z,7.30
2018-12-06T13:45:59.401Z,7.40
2018-12-06T13:46:59.388Z,7.50
2018-12-06T13:47:59.405Z,6.70
2018-12-06T13:48:59.435Z,7.20
2018-12-06T13:49:59.443Z,7.60
2018-12-06T13:50:59.457Z,7.30
2018-12-06T13:51:59.471Z,7.80
2018-12-06T13:52:59.491Z,7.20
2018-12-06T13:53:59.507Z,7.30
2018-12-06T13:54:59.525Z,6.90
2018-12-06T13:55:59.540Z,7.20
2018-12-06T13:56:59.560Z,7.60
2018-12-06T13:57:59.585Z,7.60
2018-12-06T13:58:59.602Z,7.80
2018-12-06T13:59:59.619Z,7.40
2018-12-06T14:00:59.912Z,7.20
2018-12-06T14:01:59.644Z,7.50
2018-12-06T14:02:59.659Z,7.30
2018-12-06T14:03:59.674Z,6.80
2018-12-06T14:04:59.706Z,7.10
2018-12-06T14:05:59.729Z,6.90
2018-12-06T14:06:59.735Z,7.60
2018-12-06T14:07:59.749Z,6.80
2018-12-06T14:08:59.763Z,7.20
2018-12-06T14:09:59.781Z,7.30
2018-12-06T14:10:59.794Z,7.50
2018-12-06T14:11:59.810Z,7.00
2018-12-06T14:12:59.829Z,7.00
2018-12-06T14:13:59.862Z,7.20
2018-12-06T14:14:59.865Z,7.20
2018-12-06T14:15:59.880Z,7.00
2018-12-06T14:16:59.912Z,6.60
2018-12-06T14:17:59.921Z,6.60
2018-12-06T14:18:59.941Z,7.30
2018-12-06T14:19:59.950Z,7.40
2018-12-06T14:20:59.965Z,6.70
2018-12-06T14:21:59.979Z,6.80
2018-12-06T14:23:00.001Z,7.00
2018-12-06T14:24:00.015Z,6.90
2018-12-06T14:25:00.032Z,7.40
2018-12-06T14:26:00.048Z,6.80
2018-12-06T14:27:00.068Z,7.00
2018-12-06T14:28:00.091Z,6.90
2018-12-06T14:29:00.095Z,6.80
2018-12-06T14:30:00.115Z,6.50
2018-12-06T14:31:00.138Z,7.30
2018-12-06T14:32:00.156Z,6.90
2018-12-06T14:33:00.163Z,7.20
2018-12-06T14:34:00.190Z,7.10
2018-12-06T14:35:00.207Z,7.30
2018-12-06T14:36:00.220Z,7.10
2018-12-06T14:37:02.105Z,6.80
2018-12-06T14:38:00.246Z,6.90
2018-12-06T14:39:00.266Z,6.40
2018-12-06T14:40:00.282Z,6.40
2018-12-06T14:41:00.301Z,6.50
2018-12-06T14:42:00.312Z,6.40
2018-12-06T14:43:00.339Z,6.70
2018-12-06T14:44:00.352Z,6.20
2018-12-06T14:45:00.366Z,6.30
2018-12-06T14:46:00.392Z,6.90
2018-12-06T14:47:00.402Z,6.30
2018-12-06T14:48:00.427Z,5.90
2018-12-06T14:49:00.452Z,6.40